Time;durP1;ratioP1;P1;durP2;ratioP2;P2;SDS_P1;SDS_P2;PMS_P1;PMS_P2;Temp;Humidity;BMP_temperature;BMP_pressure;BME280_temperature;BME280_humidity;BME280_pressure;Samples;Min_cycle;Max_cycle;Signal;HPM_P1;HPM_P2
2022/10/13 00:00:37;;;;;;;20.33;13.17;;;16.60;64.70;;;;;;5040406;28;20272;-48
2022/10/13 00:03:03;;;;;;;14.90;12.63;;;16.70;64.30;;;;;;5040262;28;20945;-48
2022/10/13 00:05:30;;;;;;;14.53;12.03;;;16.70;64.10;;;;;;5043764;28;20439;-47
2022/10/13 00:07:56;;;;;;;18.87;11.80;;;16.70;63.70;;;;;;5042326;28;20739;-48
2022/10/13 00:10:22;;;;;;;15.77;12.10;;;16.70;63.40;;;;;;5042628;28;20443;-47
2022/10/13 00:12:48;;;;;;;13.60;11.97;;;16.70;63.30;;;;;;5040550;28;21036;-47
2022/10/13 00:15:13;;;;;;;15.57;10.40;;;16.60;63.30;;;;;;5041281;28;20443;-46
2022/10/13 00:17:40;;;;;;;16.70;11.77;;;16.40;64.10;;;;;;5041225;28;20219;-51
2022/10/13 00:20:07;;;;;;;17.87;12.63;;;16.40;64.60;;;;;;5036994;28;20229;-46
2022/10/13 00:22:33;;;;;;;14.60;11.17;;;16.50;64.40;;;;;;5039485;28;20435;-47
2022/10/13 00:24:59;;;;;;;16.80;12.47;;;16.50;64.10;;;;;;5038635;28;20443;-49
2022/10/13 00:27:25;;;;;;;13.17;10.87;;;16.50;63.80;;;;;;5047117;28;20567;-52
2022/10/13 00:29:50;;;;;;;15.07;12.70;;;16.60;63.80;;;;;;5038721;28;20334;-48
2022/10/13 00:32:16;;;;;;;17.53;12.43;;;16.50;64.00;;;;;;5043177;28;20207;-47
2022/10/13 00:34:41;;;;;;;14.83;11.07;;;16.30;64.70;;;;;;5043108;28;20196;-47
2022/10/13 00:37:07;;;;;;;13.27;11.20;;;16.30;65.40;;;;;;5044438;28;20204;-50
2022/10/13 00:39:33;;;;;;;20.20;12.53;;;16.30;65.80;;;;;;5040758;28;20192;-46
2022/10/13 00:41:59;;;;;;;14.33;11.30;;;16.30;66.20;;;;;;5038928;28;20280;-47
2022/10/13 00:44:55;;;;;;;17.97;11.03;;;16.10;67.20;;;;;;5042071;28;20204;-47
2022/10/13 00:47:22;;;;;;;15.80;11.73;;;16.10;67.40;;;;;;5038384;28;20443;-47
2022/10/13 00:49:49;;;;;;;14.37;11.10;;;16.20;67.40;;;;;;5050292;28;20850;-47
2022/10/13 00:52:16;;;;;;;13.50;10.60;;;16.30;66.50;;;;;;5041149;28;20497;-46
2022/10/13 00:54:43;;;;;;;12.17;10.97;;;16.50;66.10;;;;;;5042682;28;20432;-49
2022/10/13 00:57:09;;;;;;;14.63;11.23;;;16.50;65.60;;;;;;5044963;28;20773;-47
2022/10/13 00:59:36;;;;;;;14.10;12.00;;;16.60;65.40;;;;;;5038332;28;22260;-46
2022/10/13 01:02:02;;;;;;;15.67;11.80;;;16.60;65.20;;;;;;5048141;28;20443;-46
2022/10/13 01:04:36;;;;;;;10.90;9.80;;;16.50;64.90;;;;;;5038942;28;20439;-46
2022/10/13 01:07:03;;;;;;;13.80;11.50;;;16.40;64.90;;;;;;5045688;28;20439;-47
2022/10/13 01:09:36;;;;;;;11.90;10.70;;;16.40;64.80;;;;;;5046366;28;20510;-46
2022/10/13 01:12:29;;;;;;;12.70;10.17;;;16.50;64.70;;;;;;5044823;28;20447;-47
2022/10/13 01:14:58;;;;;;;11.03;9.77;;;16.50;64.60;;;;;;5043642;28;21245;-48
2022/10/13 01:17:34;;;;;;;12.40;11.20;;;16.40;64.10;;;;;;5043936;28;20454;-51
2022/10/13 01:20:26;;;;;;;15.80;11.67;;;16.30;64.90;;;;;;5045086;28;20881;-51
2022/10/13 01:23:11;;;;;;;12.33;9.70;;;16.40;64.50;;;;;;5037313;28;20443;-48
2022/10/13 01:25:46;;;;;;;13.93;10.60;;;16.40;64.10;;;;;;5040164;28;20447;-49
2022/10/13 01:28:39;;;;;;;12.50;10.40;;;16.30;63.80;;;;;;5043871;28;21175;-49
2022/10/13 01:31:18;;;;;;;11.87;9.60;;;16.20;64.20;;;;;;5042504;28;20507;-48
2022/10/13 01:34:07;;;;;;;14.20;11.17;;;16.00;64.70;;;;;;5044981;28;20454;-48
2022/10/13 01:36:47;;;;;;;10.70;9.40;;;15.90;65.00;;;;;;5043495;28;20443;-48
2022/10/13 01:39:36;;;;;;;12.80;10.20;;;15.80;65.40;;;;;;5041265;28;20442;-49
2022/10/13 01:42:12;;;;;;;15.90;10.67;;;15.90;65.30;;;;;;5018979;28;21226;-48
2022/10/13 01:44:42;;;;;;;14.37;10.33;;;16.00;65.50;;;;;;5038157;28;20434;-47
2022/10/13 01:47:09;;;;;;;12.73;11.43;;;16.00;65.50;;;;;;5040585;28;20556;-47
2022/10/13 01:49:35;;;;;;;14.33;11.27;;;16.00;65.50;;;;;;5044973;28;20574;-48
2022/10/13 01:52:08;;;;;;;11.00;9.87;;;16.10;65.40;;;;;;5044483;28;20450;-47
2022/10/13 01:54:34;;;;;;;12.73;10.70;;;16.20;65.30;;;;;;5048489;28;20530;-48
2022/10/13 01:57:00;;;;;;;19.67;12.23;;;16.20;65.30;;;;;;5042414;28;20557;-47
2022/10/13 01:59:28;;;;;;;13.10;11.13;;;16.20;65.80;;;;;;5051404;28;20200;-47
2022/10/13 02:02:15;;;;;;;15.73;11.60;;;16.10;66.80;;;;;;5047767;28;20203;-48
2022/10/13 02:05:14;;;;;;;13.03;11.60;;;16.10;67.40;;;;;;5046043;28;20451;-47
2022/10/13 02:07:54;;;;;;;16.27;11.30;;;16.20;67.60;;;;;;5047605;28;20542;-47
2022/10/13 02:10:26;;;;;;;13.90;11.17;;;16.30;67.60;;;;;;5049116;28;20537;-48
2022/10/13 02:13:05;;;;;;;14.47;11.30;;;16.40;67.60;;;;;;5047920;28;20461;-50
2022/10/13 02:15:43;;;;;;;13.40;11.10;;;16.50;67.60;;;;;;5049398;28;20466;-48
2022/10/13 02:18:13;;;;;;;13.93;12.33;;;16.60;67.60;;;;;;5046470;28;20454;-49
2022/10/13 02:20:40;;;;;;;13.03;10.70;;;16.60;67.30;;;;;;5048917;28;20459;-48
2022/10/13 02:23:10;;;;;;;11.90;10.70;;;16.60;66.90;;;;;;5047882;28;20458;-46
2022/10/13 02:25:37;;;;;;;12.43;10.50;;;16.70;66.40;;;;;;5045494;28;20454;-47
2022/10/13 02:28:03;;;;;;;13.33;10.53;;;16.70;65.90;;;;;;5038000;28;20802;-49
2022/10/13 02:30:30;;;;;;;20.67;11.60;;;16.70;65.40;;;;;;5034697;28;20435;-47
2022/10/13 02:32:55;;;;;;;11.33;9.73;;;16.70;65.40;;;;;;5038728;28;20439;-47
2022/10/13 02:35:21;;;;;;;12.50;11.00;;;16.70;65.30;;;;;;5041728;28;20470;-48
2022/10/13 02:37:47;;;;;;;11.90;10.73;;;16.70;65.60;;;;;;5036722;28;20200;-46
2022/10/13 02:40:13;;;;;;;12.10;10.53;;;16.70;65.70;;;;;;5038436;28;20184;-47
2022/10/13 02:42:39;;;;;;;13.13;9.87;;;16.70;65.40;;;;;;5043971;28;20766;-47
2022/10/13 02:45:05;;;;;;;14.90;10.30;;;16.60;65.40;;;;;;5038500;28;20435;-47
2022/10/13 02:47:31;;;;;;;12.83;9.93;;;16.70;65.40;;;;;;5037527;28;20203;-48
2022/10/13 02:49:56;;;;;;;10.30;9.07;;;16.60;65.60;;;;;;5044675;28;20490;-48
2022/10/13 02:52:22;;;;;;;13.50;11.63;;;16.60;65.90;;;;;;5039058;28;20751;-51
2022/10/13 02:54:47;;;;;;;16.27;10.53;;;16.70;65.80;;;;;;5045807;28;20213;-48
2022/10/13 02:57:13;;;;;;;12.20;10.80;;;16.70;65.90;;;;;;5044889;28;21836;-49
2022/10/13 02:59:39;;;;;;;14.80;10.60;;;16.70;66.00;;;;;;5044514;28;20311;-49
2022/10/13 03:02:04;;;;;;;15.03;11.40;;;16.70;66.10;;;;;;5037589;28;20656;-48
2022/10/13 03:04:30;;;;;;;14.27;11.77;;;16.80;66.30;;;;;;5041733;28;20220;-47
2022/10/13 03:06:56;;;;;;;15.90;13.30;;;16.80;66.60;;;;;;5039363;28;20257;-46
2022/10/13 03:09:21;;;;;;;18.23;11.80;;;16.70;66.90;;;;;;5050015;28;20252;-47
2022/10/13 03:11:47;;;;;;;16.60;11.23;;;16.80;66.80;;;;;;5049419;28;20762;-46
2022/10/13 03:14:12;;;;;;;15.77;12.60;;;16.80;66.70;;;;;;5050893;28;20301;-47
2022/10/13 03:16:38;;;;;;;16.80;12.70;;;16.80;67.00;;;;;;5045898;28;20193;-47
2022/10/13 03:19:04;;;;;;;12.40;11.20;;;16.90;67.00;;;;;;5040362;28;20228;-49
2022/10/13 03:21:29;;;;;;;17.33;11.40;;;16.60;67.80;;;;;;5046226;28;20205;-49
2022/10/13 03:23:55;;;;;;;18.23;11.33;;;16.70;68.30;;;;;;5042570;28;20667;-48
2022/10/13 03:26:20;;;;;;;13.97;11.00;;;16.80;68.00;;;;;;5049222;28;20200;-50
2022/10/13 03:28:50;;;;;;;13.00;11.63;;;16.80;67.80;;;;;;5045094;28;20720;-48
2022/10/13 03:31:17;;;;;;;15.53;11.13;;;16.90;67.70;;;;;;5051608;28;20196;-48
2022/10/13 03:33:43;;;;;;;18.37;12.70;;;16.90;67.50;;;;;;5045744;28;20444;-49
2022/10/13 03:36:10;;;;;;;13.50;10.40;;;16.90;67.50;;;;;;5047639;28;20453;-46
2022/10/13 03:38:36;;;;;;;18.90;13.00;;;16.90;67.60;;;;;;5042617;28;20452;-48
2022/10/13 03:41:13;;;;;;;17.07;12.83;;;16.90;67.40;;;;;;5042821;28;20443;-50
2022/10/13 03:43:39;;;;;;;17.20;12.80;;;17.00;67.40;;;;;;5048498;28;20188;-49
2022/10/13 03:46:06;;;;;;;15.07;11.97;;;17.00;67.40;;;;;;5046299;28;20814;-48
2022/10/13 03:48:33;;;;;;;18.30;11.97;;;17.00;67.60;;;;;;5047029;28;20483;-50
2022/10/13 03:51:02;;;;;;;18.33;13.00;;;17.00;67.50;;;;;;5041988;28;20478;-50
2022/10/13 03:53:28;;;;;;;15.93;12.73;;;16.90;67.50;;;;;;5049782;28;20475;-49
2022/10/13 03:55:55;;;;;;;15.60;14.00;;;16.80;67.40;;;;;;5050458;28;20482;-47
2022/10/13 03:58:22;;;;;;;26.90;14.70;;;16.80;67.10;;;;;;5046486;28;20284;-46
2022/10/13 04:00:48;;;;;;;18.33;13.00;;;16.80;66.90;;;;;;5049044;28;20439;-51
2022/10/13 04:03:15;;;;;;;16.80;12.20;;;16.90;67.00;;;;;;5042041;28;20461;-48
2022/10/13 04:05:41;;;;;;;16.60;13.63;;;16.80;67.50;;;;;;5043549;28;20192;-51
2022/10/13 04:08:07;;;;;;;15.00;12.03;;;16.90;67.30;;;;;;5045773;28;20992;-51
2022/10/13 04:10:32;;;;;;;14.93;13.17;;;16.90;67.10;;;;;;5050591;28;20443;-47
2022/10/13 04:12:58;;;;;;;19.57;13.60;;;16.90;66.50;;;;;;5046950;28;20188;-47
2022/10/13 04:15:24;;;;;;;15.33;12.67;;;16.90;66.40;;;;;;5044769;28;20275;-47
2022/10/13 04:17:50;;;;;;;17.33;12.23;;;16.90;66.30;;;;;;5040816;28;20313;-47
2022/10/13 04:20:16;;;;;;;14.77;12.20;;;16.90;66.50;;;;;;5046461;28;20224;-46
2022/10/13 04:22:41;;;;;;;16.60;12.20;;;16.80;67.10;;;;;;5045548;28;20378;-48
2022/10/13 04:25:07;;;;;;;13.43;11.90;;;16.70;67.60;;;;;;5043298;28;20188;-50
2022/10/13 04:27:35;;;;;;;12.77;11.47;;;16.70;67.60;;;;;;5042323;28;20636;-47
2022/10/13 04:30:00;;;;;;;19.47;11.43;;;16.70;67.70;;;;;;5048567;28;20494;-48
2022/10/13 04:32:26;;;;;;;15.17;11.23;;;16.60;67.90;;;;;;5039801;28;20448;-48
2022/10/13 04:34:52;;;;;;;14.87;11.93;;;16.70;68.50;;;;;;5044469;28;20231;-47
2022/10/13 04:37:17;;;;;;;13.77;11.90;;;16.70;67.60;;;;;;5041124;28;20185;-49
2022/10/13 04:39:43;;;;;;;13.13;11.50;;;16.70;67.90;;;;;;5045091;28;20200;-47
2022/10/13 04:42:08;;;;;;;17.03;11.93;;;16.80;67.90;;;;;;5048289;28;20272;-52
2022/10/13 04:44:34;;;;;;;16.60;13.23;;;16.70;67.60;;;;;;5040477;28;20192;-47
2022/10/13 04:47:00;;;;;;;17.97;13.30;;;16.70;67.80;;;;;;5049274;28;20208;-50
2022/10/13 04:49:25;;;;;;;15.63;13.10;;;16.80;67.70;;;;;;5047316;28;20321;-48
2022/10/13 04:51:51;;;;;;;19.83;13.50;;;16.80;67.40;;;;;;5039456;28;20185;-48
2022/10/13 04:54:17;;;;;;;16.63;13.10;;;16.80;67.40;;;;;;5043093;28;20540;-47
2022/10/13 04:56:45;;;;;;;19.07;12.53;;;16.90;67.10;;;;;;5050207;28;20188;-47
2022/10/13 04:59:11;;;;;;;17.63;12.33;;;16.90;66.70;;;;;;5047835;28;20197;-46
2022/10/13 05:01:37;;;;;;;16.03;11.73;;;16.80;66.90;;;;;;5047690;28;20438;-48
2022/10/13 05:04:04;;;;;;;14.87;12.83;;;16.80;66.90;;;;;;5050642;28;20199;-48
2022/10/13 05:06:32;;;;;;;22.30;15.20;;;16.80;66.90;;;;;;5049182;28;20228;-48
2022/10/13 05:08:58;;;;;;;18.93;13.30;;;16.70;66.60;;;;;;5037499;28;20486;-47
2022/10/13 05:11:25;;;;;;;18.93;14.03;;;16.70;66.30;;;;;;5040560;28;20450;-49
2022/10/13 05:13:51;;;;;;;18.87;13.80;;;16.60;66.10;;;;;;5045117;28;20230;-47
2022/10/13 05:16:19;;;;;;;17.10;12.10;;;16.40;66.40;;;;;;5041026;28;20436;-49
2022/10/13 05:18:46;;;;;;;17.60;13.03;;;16.40;66.60;;;;;;5038703;28;20451;-52
2022/10/13 05:21:17;;;;;;;15.47;12.20;;;16.40;66.70;;;;;;5040613;28;20439;-50
2022/10/13 05:23:44;;;;;;;18.10;11.77;;;16.30;66.80;;;;;;5039583;28;21559;-48
2022/10/13 05:26:13;;;;;;;14.90;12.50;;;16.30;67.50;;;;;;5045924;28;20457;-49
2022/10/13 05:28:39;;;;;;;14.70;10.90;;;16.20;67.90;;;;;;5045822;28;20604;-49
2022/10/13 05:31:17;;;;;;;16.60;11.50;;;16.20;68.40;;;;;;5040233;28;20459;-51
2022/10/13 05:33:43;;;;;;;23.83;12.07;;;16.30;68.70;;;;;;5036845;28;20442;-47
2022/10/13 05:36:15;;;;;;;18.27;12.17;;;16.40;68.40;;;;;;5046352;28;20530;-48
2022/10/13 05:38:41;;;;;;;13.67;10.60;;;16.70;68.30;;;;;;5040473;28;20435;-48
2022/10/13 05:41:09;;;;;;;14.30;10.83;;;16.70;68.90;;;;;;5043327;28;20435;-49
2022/10/13 05:43:36;;;;;;;12.87;10.97;;;16.90;68.70;;;;;;5037590;28;20290;-49
2022/10/13 05:46:01;;;;;;;15.03;10.80;;;17.00;67.80;;;;;;5039928;28;20478;-50
2022/10/13 05:48:28;;;;;;;18.10;10.20;;;17.10;66.90;;;;;;5040592;28;20573;-47
2022/10/13 05:50:56;;;;;;;13.20;10.47;;;17.20;66.20;;;;;;5043213;28;20284;-47
2022/10/13 05:53:23;;;;;;;14.60;12.00;;;17.30;65.80;;;;;;5046938;28;20657;-51
2022/10/13 05:55:51;;;;;;;13.27;11.10;;;17.30;65.00;;;;;;5047567;28;20443;-48
2022/10/13 05:58:17;;;;;;;13.13;11.37;;;17.30;65.00;;;;;;5049038;28;20534;-49
2022/10/13 06:00:43;;;;;;;16.60;12.27;;;17.30;64.70;;;;;;5044733;28;20443;-50
2022/10/13 06:03:16;;;;;;;14.03;10.60;;;17.30;65.40;;;;;;5041780;28;20437;-53
2022/10/13 06:05:44;;;;;;;14.07;11.40;;;17.20;64.70;;;;;;5047976;28;20458;-51
2022/10/13 06:08:09;;;;;;;14.47;10.80;;;17.30;65.40;;;;;;5048398;28;20478;-48
2022/10/13 06:10:38;;;;;;;12.97;10.57;;;17.30;65.30;;;;;;5045532;28;20523;-47
2022/10/13 06:13:04;;;;;;;15.37;11.97;;;17.30;65.80;;;;;;5040140;28;20200;-48
2022/10/13 06:15:30;;;;;;;14.13;12.70;;;17.40;65.50;;;;;;5048694;28;20439;-48
2022/10/13 06:17:55;;;;;;;11.83;10.63;;;17.50;65.30;;;;;;5046600;28;20281;-48
2022/10/13 06:20:21;;;;;;;16.03;10.97;;;17.50;65.00;;;;;;5043546;28;20228;-47
2022/10/13 06:22:48;;;;;;;16.00;11.20;;;17.60;65.00;;;;;;5041716;28;20651;-49
2022/10/13 06:25:14;;;;;;;16.07;11.83;;;17.60;64.80;;;;;;5046555;28;20267;-47
2022/10/13 06:27:40;;;;;;;13.97;9.70;;;17.70;64.80;;;;;;5050323;28;20525;-46
2022/10/13 06:30:06;;;;;;;18.47;11.43;;;17.70;64.70;;;;;;5045052;28;20228;-49
2022/10/13 06:32:32;;;;;;;15.53;10.70;;;17.80;64.60;;;;;;5046035;28;20192;-47
2022/10/13 06:34:58;;;;;;;16.33;12.23;;;17.90;64.70;;;;;;5043466;28;20443;-48
2022/10/13 06:37:23;;;;;;;15.20;11.43;;;18.00;64.50;;;;;;5044877;28;20217;-49
2022/10/13 06:39:49;;;;;;;12.33;10.40;;;18.10;64.50;;;;;;5043146;28;20201;-48
2022/10/13 06:42:15;;;;;;;16.57;11.73;;;18.10;63.90;;;;;;5051942;28;20192;-47
2022/10/13 06:44:41;;;;;;;15.20;10.33;;;18.10;63.50;;;;;;5055754;28;20192;-49
2022/10/13 06:47:06;;;;;;;13.20;10.80;;;18.20;63.80;;;;;;5049473;28;20681;-46
2022/10/13 06:49:32;;;;;;;15.53;11.47;;;18.20;63.80;;;;;;5047553;28;20695;-50
2022/10/13 06:51:58;;;;;;;11.27;10.07;;;18.20;63.60;;;;;;5046609;28;20706;-49
2022/10/13 06:54:23;;;;;;;14.50;9.77;;;18.30;63.70;;;;;;5050374;28;20201;-49
2022/10/13 06:56:50;;;;;;;13.93;10.40;;;18.20;63.80;;;;;;5048178;28;20192;-47
2022/10/13 06:59:15;;;;;;;11.80;10.60;;;18.20;63.80;;;;;;5051034;28;20192;-49
2022/10/13 07:01:41;;;;;;;18.77;10.80;;;18.20;63.90;;;;;;5043573;28;21152;-50
2022/10/13 07:04:07;;;;;;;12.40;9.97;;;18.10;64.10;;;;;;5052787;28;20191;-51
2022/10/13 07:06:32;;;;;;;13.67;10.03;;;18.10;64.60;;;;;;5042979;28;20192;-53
2022/10/13 07:08:58;;;;;;;12.43;10.33;;;18.10;64.80;;;;;;5045560;28;20228;-47
2022/10/13 07:11:23;;;;;;;13.40;10.23;;;18.10;64.50;;;;;;5050544;28;20196;-48
2022/10/13 07:13:49;;;;;;;16.20;11.20;;;18.10;65.50;;;;;;5046458;28;20229;-46
2022/10/13 07:16:15;;;;;;;13.37;9.80;;;18.20;65.30;;;;;;5046398;28;20221;-52
2022/10/13 07:18:40;;;;;;;18.43;13.40;;;18.20;64.30;;;;;;5048944;28;20200;-48
2022/10/13 07:21:06;;;;;;;18.97;15.37;;;18.10;64.50;;;;;;5048708;28;20199;-50
2022/10/13 07:23:32;;;;;;;19.87;14.77;;;18.00;65.50;;;;;;5051012;28;20196;-47
2022/10/13 07:25:58;;;;;;;18.07;12.87;;;18.10;65.40;;;;;;5054109;28;20200;-47
2022/10/13 07:28:25;;;;;;;13.50;12.10;;;18.00;65.00;;;;;;5039640;28;20569;-46
2022/10/13 07:30:51;;;;;;;14.53;11.50;;;17.90;65.00;;;;;;5048889;28;20184;-47
2022/10/13 07:33:17;;;;;;;13.17;11.77;;;17.80;66.50;;;;;;5046918;28;20453;-50
2022/10/13 07:35:43;;;;;;;13.27;11.87;;;18.00;66.10;;;;;;5049874;28;20864;-47
2022/10/13 07:38:10;;;;;;;14.13;10.70;;;18.00;64.90;;;;;;5040740;28;20474;-47
2022/10/13 07:40:37;;;;;;;16.70;12.33;;;17.90;65.90;;;;;;5053639;28;20604;-47
2022/10/13 07:43:02;;;;;;;17.13;12.60;;;18.00;66.00;;;;;;5053033;28;20759;-46
2022/10/13 07:45:28;;;;;;;18.67;13.30;;;18.10;65.50;;;;;;5051796;28;20434;-51
2022/10/13 07:47:54;;;;;;;15.93;12.20;;;18.30;65.40;;;;;;5052150;28;20231;-50
2022/10/13 07:50:20;;;;;;;17.63;13.07;;;18.40;64.90;;;;;;5052504;28;20188;-51
2022/10/13 07:52:46;;;;;;;13.30;11.17;;;18.30;64.60;;;;;;5050610;28;20450;-46
2022/10/13 07:55:11;;;;;;;14.30;10.70;;;18.20;65.20;;;;;;5049453;28;21279;-47
2022/10/13 07:57:37;;;;;;;15.83;12.80;;;18.00;65.60;;;;;;5049991;28;20641;-48
2022/10/13 08:00:04;;;;;;;20.60;12.60;;;17.70;67.10;;;;;;5050385;28;20192;-50
2022/10/13 08:02:30;;;;;;;15.40;11.73;;;17.80;67.70;;;;;;5052140;28;20204;-47
2022/10/13 08:04:56;;;;;;;13.90;12.23;;;17.90;67.30;;;;;;5053257;28;20422;-47
2022/10/13 08:07:22;;;;;;;15.87;12.30;;;18.20;66.90;;;;;;5052625;28;20480;-51
2022/10/13 08:09:47;;;;;;;19.00;11.50;;;18.50;66.20;;;;;;5053689;28;20216;-48
2022/10/13 08:12:13;;;;;;;13.63;12.20;;;18.80;65.40;;;;;;5050771;28;20274;-47
2022/10/13 08:14:38;;;;;;;14.93;10.30;;;18.90;64.90;;;;;;5051540;28;20208;-48
2022/10/13 08:17:04;;;;;;;14.70;10.20;;;18.80;64.40;;;;;;5033078;28;20193;-48
2022/10/13 08:19:29;;;;;;;14.80;11.10;;;18.90;63.80;;;;;;5042719;28;20599;-46
2022/10/13 08:21:55;;;;;;;13.10;10.43;;;19.00;63.60;;;;;;5049561;28;20394;-49
2022/10/13 08:24:23;;;;;;;16.20;11.00;;;19.00;63.80;;;;;;5051001;28;20545;-46
2022/10/13 08:26:50;;;;;;;20.30;12.20;;;19.10;63.70;;;;;;5049654;28;20192;-48
2022/10/13 08:29:16;;;;;;;12.23;11.03;;;19.10;62.80;;;;;;5043694;28;20544;-49
2022/10/13 08:31:42;;;;;;;13.13;10.30;;;19.10;63.50;;;;;;5040377;28;20440;-51
2022/10/13 08:34:09;;;;;;;12.70;9.80;;;18.90;63.50;;;;;;5043083;28;20453;-49
2022/10/13 08:36:35;;;;;;;12.63;10.10;;;18.50;64.60;;;;;;5047153;28;20446;-47
2022/10/13 08:39:01;;;;;;;11.60;10.03;;;18.40;65.50;;;;;;5048489;28;20438;-51
2022/10/13 08:41:30;;;;;;;13.03;10.80;;;18.20;66.10;;;;;;5035703;28;20510;-48
2022/10/13 08:44:05;;;;;;;12.40;10.50;;;17.90;67.10;;;;;;5046083;28;20200;-51
2022/10/13 08:46:48;;;;;;;16.77;11.50;;;18.00;68.00;;;;;;5047744;28;20531;-50
2022/10/13 08:49:14;;;;;;;14.83;10.13;;;18.30;67.50;;;;;;5049255;28;20490;-48
2022/10/13 08:51:41;;;;;;;14.97;10.37;;;18.60;65.50;;;;;;5050450;28;20435;-48
2022/10/13 08:54:09;;;;;;;12.67;8.90;;;18.80;65.40;;;;;;5049889;28;20533;-50
2022/10/13 08:56:35;;;;;;;15.00;10.80;;;19.10;64.60;;;;;;5048570;28;20518;-48
2022/10/13 08:59:03;;;;;;;12.67;10.27;;;19.30;63.20;;;;;;5042669;28;20454;-50
2022/10/13 09:01:31;;;;;;;13.80;10.13;;;19.30;63.00;;;;;;5047897;28;20447;-48
2022/10/13 09:04:18;;;;;;;13.97;9.93;;;19.50;62.40;;;;;;5045284;28;20816;-49
2022/10/13 09:06:55;;;;;;;13.43;10.20;;;19.70;61.60;;;;;;5045845;28;20439;-49
2022/10/13 09:09:20;;;;;;;14.17;8.50;;;19.80;61.60;;;;;;5040301;28;20499;-48
2022/10/13 09:11:48;;;;;;;10.37;9.23;;;19.90;60.10;;;;;;5038860;28;20442;-51
2022/10/13 09:14:23;;;;;;;11.20;9.97;;;19.60;61.50;;;;;;5047233;28;20189;-47
2022/10/13 09:16:50;;;;;;;12.20;9.60;;;19.70;61.30;;;;;;5047386;28;20455;-48
2022/10/13 09:19:24;;;;;;;13.80;11.27;;;19.90;61.20;;;;;;5048478;28;20475;-48
2022/10/13 09:22:13;;;;;;;12.13;9.37;;;19.80;60.30;;;;;;5046022;28;20454;-48
2022/10/13 09:24:38;;;;;;;12.50;9.63;;;19.90;60.60;;;;;;5039606;28;20451;-48
2022/10/13 09:27:16;;;;;;;13.03;8.00;;;19.80;60.90;;;;;;5047757;28;20505;-47
2022/10/13 09:29:43;;;;;;;11.73;8.17;;;19.90;61.10;;;;;;5046514;28;20255;-51
2022/10/13 09:32:22;;;;;;;11.70;8.10;;;20.10;60.30;;;;;;5046576;28;20969;-50
2022/10/13 09:34:50;;;;;;;9.60;7.43;;;20.50;59.50;;;;;;5046459;28;20533;-48
2022/10/13 09:37:21;;;;;;;15.93;9.43;;;20.70;59.10;;;;;;5038415;28;20469;-50
2022/10/13 09:40:12;;;;;;;11.77;9.07;;;20.90;58.30;;;;;;5047578;28;20525;-48
2022/10/13 09:42:39;;;;;;;9.73;7.90;;;21.00;58.10;;;;;;5049853;28;20451;-48
2022/10/13 09:45:14;;;;;;;10.27;7.70;;;21.00;57.70;;;;;;5044892;28;20453;-48
2022/10/13 09:47:47;;;;;;;9.43;7.60;;;21.00;57.50;;;;;;5043921;28;21173;-47
2022/10/13 09:50:21;;;;;;;10.00;7.70;;;21.10;57.70;;;;;;5044902;28;20526;-48
2022/10/13 09:52:47;;;;;;;9.53;7.17;;;20.90;57.00;;;;;;5043440;28;20857;-47
2022/10/13 09:55:35;;;;;;;8.40;7.07;;;21.00;57.10;;;;;;5051656;28;20465;-47
2022/10/13 09:58:13;;;;;;;10.67;8.37;;;21.20;57.00;;;;;;5045272;28;20451;-47
2022/10/13 10:00:40;;;;;;;9.23;8.13;;;21.20;56.50;;;;;;5039888;28;20474;-48
2022/10/13 10:03:18;;;;;;;8.77;7.97;;;21.10;56.60;;;;;;5045485;28;20482;-49
2022/10/13 10:05:56;;;;;;;8.83;7.63;;;21.00;56.90;;;;;;5042806;28;20454;-47
2022/10/13 10:08:29;;;;;;;12.50;7.23;;;21.10;56.70;;;;;;5041463;28;20471;-48
2022/10/13 10:10:55;;;;;;;11.23;7.33;;;21.30;56.70;;;;;;5053403;28;20451;-48
2022/10/13 10:13:23;;;;;;;12.60;8.40;;;21.30;56.80;;;;;;5051682;28;20944;-47
2022/10/13 10:15:58;;;;;;;10.43;7.77;;;21.00;56.90;;;;;;5042132;28;20862;-47
2022/10/13 10:18:56;;;;;;;8.60;7.70;;;21.20;57.30;;;;;;5047454;28;20530;-47
2022/10/13 10:21:42;;;;;;;8.30;7.40;;;21.30;56.60;;;;;;5045072;28;21068;-49
2022/10/13 10:24:25;;;;;;;9.33;6.83;;;21.30;56.40;;;;;;5043469;28;20800;-47
2022/10/13 10:27:02;;;;;;;8.03;7.23;;;21.30;56.50;;;;;;5045615;28;20451;-49
2022/10/13 10:29:49;;;;;;;9.10;7.00;;;21.50;56.30;;;;;;5048534;28;20494;-47
2022/10/13 10:32:27;;;;;;;8.23;6.80;;;21.70;55.60;;;;;;5047346;28;20866;-49
2022/10/13 10:35:00;;;;;;;10.27;6.90;;;21.60;55.50;;;;;;5047163;28;20466;-47
2022/10/13 10:37:44;;;;;;;9.07;7.63;;;21.70;55.60;;;;;;5047784;28;20492;-47
2022/10/13 10:40:47;;;;;;;6.43;5.83;;;21.70;55.40;;;;;;5045133;28;20463;-46
2022/10/13 10:43:50;;;;;;;9.67;7.50;;;21.70;55.40;;;;;;4998327;28;20577;-47
2022/10/13 10:46:24;;;;;;;11.67;6.60;;;21.70;54.90;;;;;;5038635;28;20446;-47
2022/10/13 10:48:59;;;;;;;8.43;6.93;;;21.70;55.10;;;;;;5043381;28;20995;-49
2022/10/13 10:51:31;;;;;;;9.50;7.00;;;21.70;55.10;;;;;;5042620;28;20476;-47
2022/10/13 10:54:22;;;;;;;10.43;6.80;;;21.70;55.30;;;;;;5045498;28;20443;-49
2022/10/13 10:57:11;;;;;;;7.13;6.30;;;21.70;55.50;;;;;;5020424;28;20938;-47
2022/10/13 10:59:53;;;;;;;9.33;6.40;;;21.50;55.70;;;;;;5048176;28;20447;-49
2022/10/13 11:02:38;;;;;;;9.23;7.07;;;21.50;55.80;;;;;;5046062;28;20512;-47
2022/10/13 11:05:04;;;;;;;11.27;7.13;;;21.40;56.00;;;;;;5026363;28;20953;-47
2022/10/13 11:07:30;;;;;;;12.13;8.07;;;21.40;56.30;;;;;;5044447;28;20513;-47
2022/10/13 11:09:56;;;;;;;11.73;6.90;;;21.30;56.30;;;;;;5046930;28;20228;-49
2022/10/13 11:12:21;;;;;;;8.30;6.80;;;21.30;56.40;;;;;;5045825;28;20197;-47
2022/10/13 11:14:52;;;;;;;8.20;6.90;;;21.30;56.40;;;;;;5048169;28;20443;-48
2022/10/13 11:17:30;;;;;;;7.77;6.03;;;21.40;56.50;;;;;;5045820;28;20632;-47
2022/10/13 11:19:57;;;;;;;8.13;6.60;;;21.50;56.30;;;;;;5046754;28;20478;-47
2022/10/13 11:22:29;;;;;;;8.60;6.60;;;21.50;56.50;;;;;;5046694;28;20435;-49
2022/10/13 11:25:16;;;;;;;9.03;7.50;;;21.50;56.10;;;;;;5047607;28;20519;-47
2022/10/13 11:27:42;;;;;;;10.53;5.80;;;21.20;56.40;;;;;;5009982;28;20466;-47
2022/10/13 11:30:41;;;;;;;10.90;7.20;;;21.20;56.90;;;;;;5049098;28;20486;-48
2022/10/13 11:33:31;;;;;;;8.20;6.60;;;21.30;56.70;;;;;;5050321;28;20485;-49
2022/10/13 11:35:57;;;;;;;7.10;6.40;;;21.40;56.10;;;;;;5052659;28;20992;-49
2022/10/13 11:38:33;;;;;;;7.93;7.10;;;21.30;56.00;;;;;;5050925;28;20443;-49
2022/10/13 11:41:15;;;;;;;11.90;5.93;;;21.30;56.60;;;;;;5052398;28;20188;-47
2022/10/13 11:44:19;;;;;;;6.97;6.27;;;21.50;56.70;;;;;;5048336;28;20845;-47
2022/10/13 11:47:08;;;;;;;9.87;5.70;;;21.60;56.10;;;;;;5017359;28;20985;-49
2022/10/13 11:49:46;;;;;;;8.40;6.03;;;21.70;56.10;;;;;;5048627;28;20836;-47
2022/10/13 11:52:11;;;;;;;8.70;6.80;;;21.60;55.80;;;;;;5048504;28;20652;-48
2022/10/13 11:55:25;;;;;;;7.20;6.47;;;21.40;55.80;;;;;;5046827;28;20525;-48
2022/10/13 11:57:50;;;;;;;9.30;6.50;;;21.60;55.80;;;;;;5044848;28;20250;-48
2022/10/13 12:00:17;;;;;;;6.83;6.10;;;21.60;55.70;;;;;;5051214;28;20793;-47
2022/10/13 12:02:51;;;;;;;8.60;7.43;;;21.40;56.30;;;;;;5048284;28;20204;-47
2022/10/13 12:05:24;;;;;;;6.57;5.70;;;21.50;56.30;;;;;;5042902;28;21183;-51
2022/10/13 12:07:53;;;;;;;9.53;5.90;;;21.70;56.30;;;;;;5042483;28;20452;-47
2022/10/13 12:10:29;;;;;;;8.30;5.50;;;21.70;55.90;;;;;;5043727;28;20574;-50
2022/10/13 12:12:55;;;;;;;6.20;5.60;;;21.80;55.80;;;;;;5049121;28;20438;-48
2022/10/13 12:15:31;;;;;;;10.10;5.70;;;22.00;55.60;;;;;;5049092;28;20438;-47
2022/10/13 12:17:57;;;;;;;9.13;5.97;;;22.20;55.60;;;;;;5042454;28;20196;-49
2022/10/13 12:20:28;;;;;;;9.60;5.50;;;22.20;55.10;;;;;;5051687;28;20459;-51
2022/10/13 12:22:54;;;;;;;10.00;5.60;;;22.10;55.10;;;;;;5048046;28;20258;-49
2022/10/13 12:25:25;;;;;;;7.70;6.07;;;22.30;55.20;;;;;;5047834;28;20439;-48
2022/10/13 12:27:56;;;;;;;6.70;5.33;;;22.40;54.60;;;;;;5047359;28;20536;-49
2022/10/13 12:30:35;;;;;;;6.90;5.70;;;22.40;54.40;;;;;;5047972;28;20947;-48
2022/10/13 12:33:02;;;;;;;8.33;5.70;;;22.50;54.40;;;;;;5046352;28;20470;-46
2022/10/13 12:35:31;;;;;;;5.90;5.30;;;22.60;54.10;;;;;;5049657;28;20455;-46
2022/10/13 12:38:00;;;;;;;7.60;5.90;;;22.70;54.10;;;;;;5043425;28;20454;-45
2022/10/13 12:40:27;;;;;;;7.10;5.70;;;22.70;54.30;;;;;;5047458;28;20435;-46
2022/10/13 12:42:53;;;;;;;6.63;5.93;;;22.70;54.30;;;;;;5047946;28;20436;-51
2022/10/13 12:45:22;;;;;;;7.47;5.73;;;22.70;54.30;;;;;;5055115;28;20498;-48
2022/10/13 12:47:50;;;;;;;7.40;5.87;;;22.80;54.60;;;;;;5050890;28;20192;-47